Time;durP1;ratioP1;P1;durP2;ratioP2;P2;SDS_P1;SDS_P2;PMS_P1;PMS_P2;Temp;Humidity;BMP_temperature;BMP_pressure;BME280_temperature;BME280_humidity;BME280_pressure;Samples;Min_cycle;Max_cycle;Signal;HPM_P1;HPM_P2
2022/10/05 00:01:33;;;;;;;3.35;2.67;;;;;;;15.48;47.57;100564.91;5091861;28;20040;-44
2022/10/05 00:04:14;;;;;;;3.55;2.83;;;;;;;15.25;49.08;100571.66;5092869;28;20419;-45
2022/10/05 00:06:41;;;;;;;3.47;2.90;;;;;;;15.28;48.42;100573.91;5092565;28;20023;-42
2022/10/05 00:09:22;;;;;;;3.45;2.88;;;;;;;15.61;47.09;100572.88;5093013;28;20055;-43
2022/10/05 00:11:48;;;;;;;3.03;2.60;;;;;;;15.56;47.20;100570.88;5091561;28;20454;-45
2022/10/05 00:14:28;;;;;;;3.60;3.00;;;;;;;15.52;47.94;100572.34;5092868;28;20039;-41
2022/10/05 00:16:55;;;;;;;3.10;2.78;;;;;;;15.56;48.17;100575.41;5092276;28;20031;-42
2022/10/05 00:19:28;;;;;;;3.08;2.42;;;;;;;15.77;48.07;100568.91;5092360;28;20035;-42
2022/10/05 00:21:58;;;;;;;3.00;2.70;;;;;;;15.91;47.45;100564.25;5092144;28;20151;-44
2022/10/05 00:24:23;;;;;;;3.10;2.72;;;;;;;15.66;47.30;100577.63;5092149;28;20032;-43
2022/10/05 00:26:50;;;;;;;5.03;2.80;;;;;;;15.43;49.16;100566.38;5091868;28;20058;-42
2022/10/05 00:29:21;;;;;;;3.20;2.63;;;;;;;15.61;48.25;100581.78;5092196;28;20104;-44
2022/10/05 00:31:47;;;;;;;3.20;2.90;;;;;;;15.54;47.95;100580.97;5091915;28;20044;-43
2022/10/05 00:34:13;;;;;;;4.63;2.88;;;;;;;15.69;48.03;100577.16;5091586;28;20187;-42
2022/10/05 00:36:39;;;;;;;3.10;2.70;;;;;;;15.49;49.42;100577.31;5092079;28;20035;-43
2022/10/05 00:39:04;;;;;;;4.15;2.70;;;;;;;15.23;49.51;100571.03;5091958;28;20024;-42
2022/10/05 00:41:40;;;;;;;4.07;2.50;;;;;;;15.51;48.56;100575.22;5091997;28;20028;-42
2022/10/05 00:44:08;;;;;;;2.90;2.67;;;;;;;15.47;48.08;100576.69;5091633;28;20036;-47
2022/10/05 00:46:40;;;;;;;2.85;2.65;;;;;;;15.56;48.38;100575.41;5091949;28;20043;-43
2022/10/05 00:49:23;;;;;;;3.20;2.90;;;;;;;15.68;47.69;100564.81;5090275;28;20397;-45
2022/10/05 00:52:20;;;;;;;3.65;3.10;;;;;;;15.74;48.05;100555.91;5091786;28;20036;-44
2022/10/05 00:55:09;;;;;;;3.40;3.00;;;;;;;15.47;47.48;100552.56;5078843;28;20036;-44
2022/10/05 00:57:40;;;;;;;4.13;3.15;;;;;;;15.56;48.43;100557.44;5091574;28;20054;-43
2022/10/05 01:00:11;;;;;;;4.28;3.08;;;;;;;15.41;48.24;100562.28;5091262;28;20028;-46
2022/10/05 01:03:11;;;;;;;4.63;3.28;;;;;;;15.37;47.38;100561.09;5091294;28;20043;-42
2022/10/05 01:06:01;;;;;;;3.78;3.03;;;;;;;15.31;48.18;100559.25;5091192;28;20023;-43
2022/10/05 01:08:46;;;;;;;3.42;3.10;;;;;;;15.03;49.06;100560.41;5091095;28;20023;-43
2022/10/05 01:11:22;;;;;;;5.70;3.38;;;;;;;14.82;49.46;100556.97;5091157;28;20412;-43
2022/10/05 01:14:01;;;;;;;3.47;3.17;;;;;;;14.75;49.14;100560.72;5089911;28;20116;-43
2022/10/05 01:16:34;;;;;;;4.30;3.20;;;;;;;14.69;49.76;100565.06;5091176;28;20083;-42
2022/10/05 01:19:41;;;;;;;3.92;2.92;;;;;;;15.01;49.18;100565.16;5090991;28;20602;-41
2022/10/05 01:22:12;;;;;;;3.97;3.40;;;;;;;14.95;49.41;100569.53;5090856;28;20099;-42
2022/10/05 01:24:37;;;;;;;4.15;3.20;;;;;;;14.81;49.80;100574.13;5091205;28;20032;-43
2022/10/05 01:27:27;;;;;;;4.03;3.28;;;;;;;15.08;49.84;100567.81;5090451;28;20032;-43
2022/10/05 01:30:10;;;;;;;4.57;3.00;;;;;;;15.00;49.55;100560.84;5090797;28;20483;-42
2022/10/05 01:33:08;;;;;;;5.00;3.00;;;;;;;15.04;49.79;100565.56;5090989;28;20106;-43
2022/10/05 01:35:45;;;;;;;4.03;3.13;;;;;;;15.39;48.26;100561.69;5090347;28;20035;-42
2022/10/05 01:38:36;;;;;;;5.28;3.15;;;;;;;15.21;47.90;100571.28;5090675;28;20031;-43
2022/10/05 01:41:13;;;;;;;3.30;2.97;;;;;;;14.73;49.02;100582.34;5090611;28;20036;-44
2022/10/05 01:43:47;;;;;;;4.90;3.10;;;;;;;14.08;50.42;100575.00;5091051;28;20368;-44
2022/10/05 01:46:24;;;;;;;3.33;3.03;;;;;;;14.55;49.94;100583.00;5090628;28;20085;-43
2022/10/05 01:49:16;;;;;;;3.50;3.20;;;;;;;14.33;49.82;100578.91;5090218;28;20533;-44
2022/10/05 01:51:44;;;;;;;5.70;3.05;;;;;;;14.10;50.89;100582.00;5090250;28;20024;-43
2022/10/05 01:54:34;;;;;;;3.30;3.00;;;;;;;14.25;51.20;100590.66;5090250;28;20032;-44
2022/10/05 01:57:08;;;;;;;5.13;3.20;;;;;;;14.01;50.70;100592.94;5090585;28;20032;-46
2022/10/05 01:59:45;;;;;;;3.70;3.38;;;;;;;13.75;50.94;100600.94;5089774;28;20080;-44
2022/10/05 02:02:16;;;;;;;4.75;3.42;;;;;;;13.87;51.55;100591.25;5090254;28;20032;-44
2022/10/05 02:04:48;;;;;;;3.90;3.17;;;;;;;13.97;51.00;100602.38;5090105;28;20031;-44
2022/10/05 02:07:34;;;;;;;4.72;3.17;;;;;;;14.07;50.81;100602.81;5090309;28;20024;-43
2022/10/05 02:10:16;;;;;;;3.40;3.10;;;;;;;13.81;50.88;100603.59;5090121;28;20038;-42
2022/10/05 02:12:43;;;;;;;4.28;3.13;;;;;;;13.94;50.72;100612.69;5090307;28;20129;-43
2022/10/05 02:15:24;;;;;;;3.50;3.20;;;;;;;14.01;51.24;100610.81;5090055;28;20398;-44
2022/10/05 02:17:51;;;;;;;;;;;;;;;14.06;50.50;100619.06;5090455;28;20124;-43
2022/10/05 02:20:24;;;;;;;3.67;3.15;;;;;;;14.21;51.33;100625.03;5090174;28;20365;-44
2022/10/05 02:22:53;;;;;;;4.13;3.47;;;;;;;14.36;50.43;100635.56;5089937;28;20024;-43
2022/10/05 02:25:24;;;;;;;3.50;3.17;;;;;;;14.00;50.62;100643.97;5089628;28;20371;-43
2022/10/05 02:28:02;;;;;;;4.03;3.08;;;;;;;13.79;50.69;100645.78;5090256;28;20024;-44
2022/10/05 02:30:30;;;;;;;3.53;3.00;;;;;;;13.66;50.88;100641.22;5090089;28;20425;-43
2022/10/05 02:33:05;;;;;;;3.50;2.90;;;;;;;13.52;51.41;100644.91;5089701;28;20031;-43
2022/10/05 02:35:31;;;;;;;4.63;3.10;;;;;;;13.51;52.34;100648.59;5088427;28;20028;-43
2022/10/05 02:38:13;;;;;;;4.00;3.30;;;;;;;13.69;50.99;100654.22;5089827;28;20520;-43
2022/10/05 02:40:56;;;;;;;4.47;3.45;;;;;;;13.46;51.66;100657.22;5089635;28;20039;-44
2022/10/05 02:43:28;;;;;;;4.72;3.35;;;;;;;13.68;51.72;100663.25;5089752;28;20024;-44
2022/10/05 02:46:03;;;;;;;3.70;3.15;;;;;;;14.05;50.43;100663.75;5089772;28;20024;-43
2022/10/05 02:48:37;;;;;;;3.95;3.45;;;;;;;13.29;51.82;100638.00;5089551;28;20326;-42
2022/10/05 02:51:38;;;;;;;3.92;3.50;;;;;;;13.73;51.41;100654.63;5089818;28;20028;-44
2022/10/05 02:54:24;;;;;;;5.63;3.30;;;;;;;13.25;52.93;100663.47;5089628;28;20040;-43
2022/10/05 02:57:08;;;;;;;6.38;3.03;;;;;;;13.55;51.86;100665.06;5089888;28;20028;-44
2022/10/05 02:59:33;;;;;;;5.20;3.35;;;;;;;13.40;52.54;100678.56;5089598;28;20028;-44
2022/10/05 03:02:16;;;;;;;4.30;3.50;;;;;;;13.60;52.42;100679.47;5089761;28;20548;-45
2022/10/05 03:04:53;;;;;;;4.80;3.28;;;;;;;12.76;53.43;100648.41;5089685;28;20023;-44
2022/10/05 03:07:46;;;;;;;4.88;3.50;;;;;;;13.26;52.82;100669.66;5089652;28;20031;-41
2022/10/05 03:10:36;;;;;;;4.57;3.60;;;;;;;13.07;53.54;100673.88;5089842;28;20048;-42
2022/10/05 03:13:20;;;;;;;7.03;5.38;;;;;;;13.14;53.42;100677.41;5089548;28;20024;-44
2022/10/05 03:16:19;;;;;;;27.25;17.80;;;;;;;13.46;52.40;100673.25;5089650;28;20089;-43
2022/10/05 03:19:15;;;;;;;33.35;19.33;;;;;;;13.18;53.38;100669.81;5089619;28;20078;-44
2022/10/05 03:22:18;;;;;;;8.15;4.13;;;;;;;13.36;52.74;100663.97;5089148;28;20416;-43
2022/10/05 03:25:41;;;;;;;4.63;3.45;;;;;;;13.23;53.44;100662.00;5055339;28;20119;-43
2022/10/05 03:28:17;;;;;;;6.15;3.88;;;;;;;13.16;53.42;100674.53;5027141;28;20561;-43
2022/10/05 03:31:21;;;;;;;5.03;3.47;;;;;;;13.34;53.15;100672.16;5027143;28;20056;-43
2022/10/05 03:33:57;;;;;;;5.78;3.50;;;;;;;13.74;52.35;100676.84;5084838;28;20032;-42
2022/10/05 03:36:31;;;;;;;4.45;3.50;;;;;;;13.80;51.89;100679.56;5089917;28;20048;-42
2022/10/05 03:39:13;;;;;;;5.18;3.83;;;;;;;13.56;52.15;100680.91;5093117;28;20115;-43
2022/10/05 03:41:41;;;;;;;4.53;3.25;;;;;;;13.66;52.19;100688.56;5093393;28;20103;-45
2022/10/05 03:44:22;;;;;;;4.85;3.47;;;;;;;13.69;52.26;100682.81;5093034;28;20024;-41
2022/10/05 03:47:14;;;;;;;4.82;3.40;;;;;;;13.81;51.82;100693.75;5092799;28;20513;-43
2022/10/05 03:49:46;;;;;;;8.32;5.63;;;;;;;14.10;51.42;100687.22;5093010;28;20435;-43
2022/10/05 03:52:14;;;;;;;6.53;3.70;;;;;;;13.55;52.41;100687.28;5092628;28;20107;-43
2022/10/05 03:54:48;;;;;;;4.97;3.60;;;;;;;13.74;52.21;100685.69;5092880;28;20097;-43
2022/10/05 03:57:18;;;;;;;4.32;3.35;;;;;;;14.00;51.71;100695.63;5092856;28;20024;-43
2022/10/05 04:00:01;;;;;;;4.43;3.60;;;;;;;13.74;51.71;100698.25;5092705;28;20082;-42
2022/10/05 04:02:32;;;;;;;5.30;3.47;;;;;;;13.62;51.87;100701.50;5090980;28;20020;-42
2022/10/05 04:05:03;;;;;;;5.20;3.20;;;;;;;14.22;55.14;100704.34;5092052;28;20066;-42
2022/10/05 04:07:37;;;;;;;5.65;3.25;;;;;;;14.37;51.81;100711.34;5091938;28;20484;-41
2022/10/05 04:10:12;;;;;;;4.25;2.95;;;;;;;14.61;50.75;100705.41;5092138;28;20024;-43
2022/10/05 04:12:44;;;;;;;5.70;3.50;;;;;;;14.55;50.18;100705.38;5092167;28;20085;-43
2022/10/05 04:15:21;;;;;;;4.85;3.28;;;;;;;14.54;53.81;100699.19;5092003;28;20027;-43
2022/10/05 04:17:59;;;;;;;4.80;3.00;;;;;;;14.74;49.71;100709.13;5091890;28;20024;-42
2022/10/05 04:20:32;;;;;;;6.30;3.35;;;;;;;14.51;49.44;100722.88;5091754;28;20116;-43
2022/10/05 04:23:24;;;;;;;6.13;3.38;;;;;;;13.92;50.82;100724.41;5091901;28;20103;-42
2022/10/05 04:25:54;;;;;;;3.83;3.10;;;;;;;13.68;51.34;100727.44;5096391;28;20042;-42
2022/10/05 04:28:31;;;;;;;4.00;3.17;;;;;;;13.89;51.45;100734.50;5104569;28;20027;-44
2022/10/05 04:30:59;;;;;;;3.58;3.20;;;;;;;14.20;52.33;100743.03;5105852;28;20409;-43
2022/10/05 04:33:26;;;;;;;6.30;3.40;;;;;;;13.74;51.76;100735.69;5101953;28;20023;-43
2022/10/05 04:36:03;;;;;;;6.85;3.70;;;;;;;14.05;51.24;100729.81;5092168;28;20031;-43
2022/10/05 04:38:53;;;;;;;7.85;3.33;;;;;;;14.27;50.71;100725.94;5107730;28;20050;-43
2022/10/05 04:42:03;;;;;;;3.75;3.35;;;;;;;14.27;50.35;100730.47;5111368;28;20024;-42
2022/10/05 04:44:45;;;;;;;4.13;3.10;;;;;;;14.31;51.01;100736.25;5029011;28;20025;-42
2022/10/05 04:47:48;;;;;;;4.85;3.50;;;;;;;14.97;50.61;100735.47;5098162;28;20036;-41
2022/10/05 04:50:53;;;;;;;6.90;3.83;;;;;;;15.32;48.16;100725.28;5111944;28;20024;-42
2022/10/05 04:53:26;;;;;;;6.70;3.50;;;;;;;15.52;47.25;100740.50;5110623;28;20031;-42
2022/10/05 04:56:28;;;;;;;4.38;3.40;;;;;;;16.18;46.07;100748.28;5107217;28;20371;-36
2022/10/05 04:59:20;;;;;;;5.90;3.00;;;;;;;16.24;45.75;100743.91;5111882;28;20063;-37
2022/10/05 05:01:54;;;;;;;4.88;2.95;;;;;;;16.38;45.05;100752.69;5111988;28;20031;-37
2022/10/05 05:04:32;;;;;;;7.55;3.28;;;;;;;16.67;45.21;100748.53;5110206;28;20080;-37
2022/10/05 05:07:17;;;;;;;6.32;3.50;;;;;;;16.49;45.02;100749.31;5103197;28;20390;-37
2022/10/05 05:10:19;;;;;;;6.38;2.72;;;;;;;16.37;45.29;100751.03;5102921;28;20039;-36
2022/10/05 05:12:44;;;;;;;;;;;;;;;15.99;45.09;100763.47;5091573;28;20666;-40
2022/10/05 05:15:13;;;;;;;4.63;3.20;;;;;;;16.56;45.08;100763.53;5094368;28;19919;-41
2022/10/05 05:18:00;;;;;;;9.00;4.63;;;;;;;17.28;43.51;100768.47;5110924;28;20058;-43
2022/10/05 05:21:06;;;;;;;27.20;19.08;;;;;;;18.06;42.09;100769.66;5111237;28;20070;-36
2022/10/05 05:23:43;;;;;;;14.05;8.70;;;;;;;18.68;40.55;100768.56;5110910;28;20055;-36
2022/10/05 05:26:20;;;;;;;5.78;3.47;;;;;;;19.28;40.37;100772.94;5111793;28;20027;-35
2022/10/05 05:29:24;;;;;;;4.68;2.80;;;;;;;19.74;38.81;100771.22;5111608;28;20471;-36
2022/10/05 05:32:04;;;;;;;4.75;3.20;;;;;;;20.05;38.03;100771.84;5111191;28;20427;-36
2022/10/05 05:34:40;;;;;;;6.47;3.13;;;;;;;20.31;37.44;100773.94;5098955;28;20407;-36
2022/10/05 05:37:24;;;;;;;6.72;3.00;;;;;;;20.44;36.57;100780.09;5108809;28;20038;-36
2022/10/05 05:40:05;;;;;;;9.40;3.25;;;;;;;20.58;36.05;100792.25;5109738;28;20024;-36
2022/10/05 05:42:42;;;;;;;7.22;3.15;;;;;;;20.82;35.57;100786.72;5109216;28;20096;-36
2022/10/05 05:45:16;;;;;;;6.38;3.25;;;;;;;21.04;35.84;100794.91;5108931;28;20095;-37
2022/10/05 05:47:50;;;;;;;9.45;2.85;;;;;;;21.28;35.38;100796.34;5109462;28;20023;-34
2022/10/05 05:50:33;;;;;;;5.00;3.05;;;;;;;21.55;34.66;100792.13;5110727;28;20374;-37
2022/10/05 05:53:11;;;;;;;5.38;2.78;;;;;;;21.88;34.15;100809.34;5109604;28;20031;-35
2022/10/05 05:55:43;;;;;;;6.63;2.80;;;;;;;22.30;33.29;100809.56;5107985;28;20173;-36
2022/10/05 05:58:21;;;;;;;6.07;3.00;;;;;;;22.00;34.37;100818.94;5105652;28;20100;-35
2022/10/05 06:01:02;;;;;;;11.10;3.10;;;;;;;21.60;34.62;100816.56;5110523;28;20088;-36
2022/10/05 06:03:36;;;;;;;10.85;4.90;;;;;;;22.22;33.51;100818.13;5110227;28;20016;-36
2022/10/05 06:06:08;;;;;;;11.25;3.75;;;;;;;22.59;32.98;100831.78;5110587;28;20121;-37
2022/10/05 06:08:39;;;;;;;6.40;2.95;;;;;;;22.56;32.93;100826.91;5110432;28;20085;-37
2022/10/05 06:11:44;;;;;;;4.38;2.58;;;;;;;21.63;34.22;100835.03;5109464;28;20096;-42
2022/10/05 06:14:41;;;;;;;5.85;2.78;;;;;;;21.68;34.48;100824.25;5069508;28;20032;-42
2022/10/05 06:17:21;;;;;;;6.85;2.80;;;;;;;22.10;33.99;100842.63;5109754;28;20024;-44
2022/10/05 06:19:49;;;;;;;8.33;5.13;;;;;;;22.62;33.33;100849.47;5111036;28;20495;-42
2022/10/05 06:22:21;;;;;;;8.63;3.40;;;;;;;21.61;33.71;100845.28;5110547;28;20055;-41
2022/10/05 06:25:07;;;;;;;9.10;3.80;;;;;;;21.22;35.51;100848.75;5110915;28;20053;-42
2022/10/05 06:27:36;;;;;;;3.80;2.78;;;;;;;21.00;35.27;100859.53;5110180;28;20106;-44
2022/10/05 06:30:14;;;;;;;3.97;2.85;;;;;;;20.92;35.12;100854.50;5108892;28;20410;-43
2022/10/05 06:32:57;;;;;;;5.35;2.50;;;;;;;20.64;35.44;100856.22;5107988;28;20122;-42
2022/10/05 06:35:28;;;;;;;4.85;2.70;;;;;;;20.37;35.52;100860.53;5108260;28;20102;-43
2022/10/05 06:38:25;;;;;;;6.70;2.60;;;;;;;20.21;35.83;100856.72;5108313;28;20034;-43
2022/10/05 06:40:54;;;;;;;8.32;3.72;;;;;;;20.20;36.52;100871.28;5096997;28;20134;-43
2022/10/05 06:43:27;;;;;;;5.03;2.70;;;;;;;20.20;36.08;100873.97;5108242;28;20039;-43
2022/10/05 06:46:04;;;;;;;4.35;2.50;;;;;;;21.18;35.06;100873.88;5108578;28;20016;-43
2022/10/05 06:48:54;;;;;;;7.65;3.17;;;;;;;21.82;33.57;100868.06;5108291;28;20126;-43
2022/10/05 06:51:31;;;;;;;6.47;2.92;;;;;;;22.23;32.87;100866.63;5108986;28;20451;-42
2022/10/05 06:54:22;;;;;;;3.15;2.30;;;;;;;21.06;34.36;100866.66;5109566;28;20410;-43
2022/10/05 06:56:57;;;;;;;6.00;3.08;;;;;;;20.82;34.67;100865.97;5109800;28;20031;-41
2022/10/05 06:59:42;;;;;;;10.15;3.10;;;;;;;21.71;33.63;100858.16;5110062;28;20027;-42
2022/10/05 07:02:19;;;;;;;9.73;2.70;;;;;;;21.77;33.76;100862.56;5110010;28;20023;-42
2022/10/05 07:04:59;;;;;;;4.05;2.40;;;;;;;22.75;32.04;100864.47;5110136;28;20016;-41
2022/10/05 07:07:52;;;;;;;3.97;2.55;;;;;;;23.66;30.84;100865.44;5109699;28;20059;-42
2022/10/05 07:10:41;;;;;;;5.18;3.00;;;;;;;23.65;30.27;100864.63;5110411;28;20119;-42
2022/10/05 07:13:22;;;;;;;3.97;2.25;;;;;;;23.26;30.74;100869.53;5113676;28;20024;-41
2022/10/05 07:16:06;;;;;;;4.53;2.42;;;;;;;22.83;31.65;100861.31;5113540;28;20384;-43
2022/10/05 07:18:46;;;;;;;5.22;2.78;;;;;;;22.67;31.67;100857.63;5113329;28;20108;-43
2022/10/05 07:21:26;;;;;;;4.50;2.10;;;;;;;22.73;31.94;100864.75;5113220;28;20118;-44
2022/10/05 07:24:04;;;;;;;3.95;2.35;;;;;;;23.49;31.16;100868.34;5113606;28;20020;-42
2022/10/05 07:26:36;;;;;;;7.88;2.30;;;;;;;24.61;29.38;100867.19;5113323;28;20059;-43
2022/10/05 07:29:22;;;;;;;6.20;2.65;;;;;;;24.97;29.06;100862.59;5113319;28;20023;-43
2022/10/05 07:32:03;;;;;;;6.53;2.53;;;;;;;25.11;28.86;100865.56;5113306;28;20031;-42
2022/10/05 07:34:50;;;;;;;3.22;2.22;;;;;;;25.45;28.30;100870.47;5113045;28;20028;-43
2022/10/05 07:40:36;;;;;;;4.65;2.40;;;;;;;24.69;28.60;100864.75;5113316;28;20496;-42
2022/10/05 07:43:28;;;;;;;4.43;2.30;;;;;;;23.75;29.87;100872.84;5113039;28;20035;-43
2022/10/05 07:45:57;;;;;;;4.38;2.03;;;;;;;23.01;31.53;100862.81;5113036;28;20027;-43
2022/10/05 07:48:32;;;;;;;7.25;2.50;;;;;;;23.55;30.85;100859.97;5113004;27;20372;-42
2022/10/05 07:51:12;;;;;;;4.20;2.40;;;;;;;24.16;30.23;100858.63;5113196;28;20420;-44
2022/10/05 07:53:58;;;;;;;3.15;2.10;;;;;;;25.22;29.32;100858.22;5113053;28;20140;-45
2022/10/05 07:56:39;;;;;;;2.83;2.00;;;;;;;26.04;27.60;100858.03;5112671;28;20042;-43
2022/10/05 07:59:11;;;;;;;4.75;1.90;;;;;;;25.58;28.08;100860.91;5113187;28;20020;-43
2022/10/05 08:01:43;;;;;;;7.45;2.60;;;;;;;25.93;27.76;100862.69;5113237;28;20474;-45
2022/10/05 08:04:16;;;;;;;5.57;2.25;;;;;;;25.68;28.30;100872.59;5113164;28;20034;-44
2022/10/05 08:07:01;;;;;;;6.45;2.30;;;;;;;26.14;27.50;100866.13;5113035;28;20058;-46
2022/10/05 08:09:35;;;;;;;5.13;3.33;;;;;;;26.20;27.30;100866.94;5113016;28;20031;-47
2022/10/05 08:12:22;;;;;;;2.90;2.00;;;;;;;26.78;26.66;100867.13;5112949;28;20054;-44
2022/10/05 08:15:19;;;;;;;4.25;2.05;;;;;;;26.61;26.95;100869.44;5112955;28;20023;-44
2022/10/05 08:17:53;;;;;;;3.25;2.00;;;;;;;25.65;27.92;100875.06;5112571;28;20525;-44
2022/10/05 08:20:27;;;;;;;4.28;1.90;;;;;;;25.83;27.66;100868.97;5112161;28;20052;-44
2022/10/05 08:23:00;;;;;;;8.85;2.60;;;;;;;25.17;28.42;100872.66;5111907;28;20023;-44
2022/10/05 08:26:07;;;;;;;6.18;3.30;;;;;;;25.75;28.12;100859.47;5112170;28;20053;-43
2022/10/05 08:28:41;;;;;;;4.68;2.90;;;;;;;25.68;27.88;100878.03;5088009;28;20159;-46
2022/10/05 08:31:06;;;;;;;5.53;2.30;;;;;;;26.24;27.28;100865.28;5111641;28;20023;-44
2022/10/05 08:34:02;;;;;;;8.23;2.60;;;;;;;26.55;27.31;100868.63;5111865;28;20494;-43
2022/10/05 08:37:08;;;;;;;7.07;2.17;;;;;;;25.83;27.66;100877.16;5108733;28;20032;-43
2022/10/05 08:39:41;;;;;;;3.75;2.10;;;;;;;26.20;27.07;100865.03;5088450;28;20031;-46
2022/10/05 08:42:35;;;;;;;4.15;2.30;;;;;;;26.67;26.85;100866.41;5111753;28;20024;-43
2022/10/05 08:45:06;;;;;;;5.47;2.15;;;;;;;26.26;27.14;100872.09;5109860;28;20324;-43
2022/10/05 08:47:56;;;;;;;4.57;2.20;;;;;;;26.76;26.74;100858.41;5112002;28;20096;-43
2022/10/05 08:50:50;;;;;;;4.97;2.53;;;;;;;26.76;26.69;100863.06;5110152;28;20039;-43
2022/10/05 08:54:05;;;;;;;4.05;2.40;;;;;;;27.45;25.92;100867.38;5109752;28;20027;-43
2022/10/05 08:56:43;;;;;;;3.40;2.53;;;;;;;27.57;25.33;100852.47;5111664;28;20020;-43
2022/10/05 08:59:24;;;;;;;6.90;2.50;;;;;;;26.83;26.26;100855.38;5111562;28;20016;-42
2022/10/05 09:02:11;;;;;;;3.35;1.90;;;;;;;27.16;25.68;100848.25;5111357;28;20019;-42
2022/10/05 09:05:27;;;;;;;2.67;1.83;;;;;;;27.20;25.38;100849.28;5109402;28;20016;-42
2022/10/05 09:08:01;;;;;;;3.35;1.70;;;;;;;26.86;25.65;100846.59;5045995;28;20032;-44
2022/10/05 09:10:51;;;;;;;3.75;1.77;;;;;;;27.25;25.19;100835.63;5048230;28;20055;-43
2022/10/05 09:13:41;;;;;;;5.30;2.00;;;;;;;27.24;25.33;100850.34;5094658;28;20032;-43
2022/10/05 09:16:43;;;;;;;2.53;1.70;;;;;;;26.49;25.37;100840.56;5111195;28;20079;-43
2022/10/05 09:19:14;;;;;;;3.92;1.63;;;;;;;26.76;24.65;100835.78;5111056;28;20104;-45
2022/10/05 09:21:55;;;;;;;4.25;1.73;;;;;;;25.71;26.08;100830.31;5110310;28;20122;-43
2022/10/05 09:24:27;;;;;;;2.45;1.80;;;;;;;25.09;27.53;100832.34;5111254;28;20027;-44
2022/10/05 09:27:27;;;;;;;4.28;3.13;;;;;;;26.16;25.88;100830.41;5109421;28;20015;-43
2022/10/05 09:29:58;;;;;;;2.90;2.30;;;;;;;26.63;25.68;100831.78;5109884;28;20037;-44
2022/10/05 09:33:01;;;;;;;5.30;3.00;;;;;;;27.14;25.31;100836.78;5109986;28;20070;-45
2022/10/05 09:36:08;;;;;;;4.20;2.38;;;;;;;26.19;25.78;100836.13;5109109;28;20092;-44
2022/10/05 09:38:59;;;;;;;3.90;3.05;;;;;;;27.10;25.50;100836.53;5071591;28;20189;-44
2022/10/05 09:41:56;;;;;;;3.38;1.80;;;;;;;26.98;24.84;100830.66;5110431;28;20024;-43
2022/10/05 09:44:51;;;;;;;2.45;1.70;;;;;;;27.41;24.45;100829.97;5062719;28;20106;-43
2022/10/05 09:47:28;;;;;;;3.80;1.60;;;;;;;27.47;24.00;100832.38;5108698;28;20160;-42
2022/10/05 09:50:15;;;;;;;1.98;1.50;;;;;;;27.36;24.23;100841.78;5109164;28;20499;-42
2022/10/05 09:53:17;;;;;;;3.92;1.90;;;;;;;27.35;23.68;100837.41;5109464;28;20023;-43
2022/10/05 09:56:19;;;;;;;2.67;1.58;;;;;;;27.91;22.37;100835.16;5089677;28;20051;-43
2022/10/05 09:59:09;;;;;;;2.70;1.92;;;;;;;28.49;22.76;100834.88;5081393;27;20459;-43
2022/10/05 10:01:40;;;;;;;1.85;1.60;;;;;;;28.19;23.62;100844.34;5107101;28;20062;-43
2022/10/05 10:04:22;;;;;;;1.58;1.48;;;;;;;28.35;22.57;100837.56;5102097;28;20118;-45
2022/10/05 10:07:12;;;;;;;3.03;1.50;;;;;;;28.68;21.81;100834.09;5110883;28;20031;-45
2022/10/05 10:09:43;;;;;;;5.05;1.60;;;;;;;28.53;22.09;100835.13;5110808;28;20104;-44
2022/10/05 10:12:37;;;;;;;3.60;2.08;;;;;;;26.65;24.31;100810.47;5108012;28;20058;-42
2022/10/05 10:15:17;;;;;;;3.30;1.65;;;;;;;27.06;23.74;100831.97;5110845;28;20024;-42
2022/10/05 10:18:06;;;;;;;2.80;1.58;;;;;;;26.87;23.72;100829.94;5110661;28;20034;-46
2022/10/05 10:20:40;;;;;;;4.88;1.58;;;;;;;26.72;24.04;100821.88;5109436;28;20088;-44
2022/10/05 10:23:32;;;;;;;8.73;1.90;;;;;;;26.83;24.68;100817.16;5110071;28;20028;-43
2022/10/05 10:26:25;;;;;;;2.15;1.70;;;;;;;27.71;23.58;100819.81;5106021;28;20047;-44
2022/10/05 10:28:59;;;;;;;2.22;1.83;;;;;;;27.80;23.12;100818.88;5110177;28;20054;-44
2022/10/05 10:31:27;;;;;;;2.22;1.77;;;;;;;27.46;23.48;100824.47;5110128;28;20568;-42
2022/10/05 10:34:11;;;;;;;5.50;1.70;;;;;;;27.80;23.16;100807.94;5110280;28;20403;-44
2022/10/05 10:36:50;;;;;;;1.50;1.40;;;;;;;28.08;23.00;100810.84;5110182;28;20028;-42
2022/10/05 10:39:35;;;;;;;6.25;1.60;;;;;;;28.05;22.06;100808.72;5110265;28;20107;-42
2022/10/05 10:42:36;;;;;;;1.85;0.98;;;;;;;27.93;21.50;100809.16;5109421;28;20131;-42
2022/10/05 10:45:39;;;;;;;1.15;0.90;;;;;;;26.50;21.40;100808.63;5109805;28;20027;-44
2022/10/05 10:48:27;;;;;;;2.58;1.25;;;;;;;25.78;23.77;100803.59;5110849;28;20498;-44
2022/10/05 10:51:16;;;;;;;4.70;1.70;;;;;;;25.08;24.74;100800.78;5113912;28;20036;-43
2022/10/05 10:54:18;;;;;;;2.17;1.48;;;;;;;26.20;23.71;100799.56;5114085;28;20478;-42
2022/10/05 10:56:55;;;;;;;1.92;1.50;;;;;;;26.42;23.43;100807.31;5114163;28;20020;-44
2022/10/05 11:00:00;;;;;;;2.63;1.60;;;;;;;26.48;23.20;100795.28;5114032;28;20028;-43
2022/10/05 11:02:38;;;;;;;1.80;1.35;;;;;;;25.63;24.77;100798.22;5114323;28;20069;-46
2022/10/05 11:05:31;;;;;;;3.72;1.70;;;;;;;26.53;24.02;100797.16;5114372;28;20024;-44
2022/10/05 11:08:05;;;;;;;2.28;1.52;;;;;;;26.40;23.21;100789.63;5113827;28;20479;-43
2022/10/05 11:10:46;;;;;;;2.53;1.50;;;;;;;26.90;22.93;100793.88;5113739;28;20136;-44
2022/10/05 11:13:23;;;;;;;1.98;1.42;;;;;;;26.41;22.94;100791.25;5114129;28;20027;-44
2022/10/05 11:16:20;;;;;;;2.17;1.70;;;;;;;26.22;23.64;100780.19;5113356;28;20023;-43
2022/10/05 11:19:22;;;;;;;2.83;1.80;;;;;;;26.96;23.35;100782.88;5114034;28;20028;-45
2022/10/05 11:21:53;;;;;;;3.63;2.40;;;;;;;26.72;23.47;100781.72;5112355;28;20070;-42
2022/10/05 11:25:13;;;;;;;2.88;1.70;;;;;;;26.89;22.84;100784.03;5113651;28;20096;-45
2022/10/05 11:27:50;;;;;;;1.63;1.52;;;;;;;27.34;22.68;100778.44;5030418;28;20128;-43
2022/10/05 11:30:34;;;;;;;3.03;1.67;;;;;;;27.83;22.05;100776.44;5102757;28;20039;-46
2022/10/05 11:33:12;;;;;;;3.13;1.40;;;;;;;28.62;21.54;100770.38;5113441;28;20027;-45
2022/10/05 11:36:03;;;;;;;1.70;1.40;;;;;;;29.27;20.61;100769.47;5112997;27;20062;-43
2022/10/05 11:38:47;;;;;;;3.55;2.05;;;;;;;29.49;20.48;100766.00;5113414;28;20407;-46
2022/10/05 11:41:45;;;;;;;5.35;3.33;;;;;;;29.80;20.49;100768.16;5113455;28;20031;-43
2022/10/05 11:44:32;;;;;;;5.80;3.40;;;;;;;30.16;19.67;100770.09;5078328;28;20498;-44
2022/10/05 11:47:07;;;;;;;5.85;3.40;;;;;;;29.45;20.12;100759.50;5113106;28;20041;-45
2022/10/05 11:49:41;;;;;;;3.72;2.08;;;;;;;29.12;20.10;100758.78;5113151;28;20041;-43
2022/10/05 11:52:15;;;;;;;3.75;1.60;;;;;;;27.84;21.00;100757.00;5113148;28;20038;-45
2022/10/05 11:54:46;;;;;;;3.40;1.40;;;;;;;27.15;21.67;100755.66;5113140;28;20031;-44
2022/10/05 11:57:22;;;;;;;2.78;1.70;;;;;;;27.50;21.74;100757.19;5112038;28;20027;-45
2022/10/05 11:59:50;;;;;;;2.25;1.80;;;;;;;26.93;22.05;100754.25;5113294;28;20510;-45
2022/10/05 12:02:37;;;;;;;3.22;1.60;;;;;;;27.27;22.31;100751.44;5113157;28;20039;-44
2022/10/05 12:05:15;;;;;;;1.90;1.80;;;;;;;26.30;23.32;100749.59;5113030;28;20028;-43
2022/10/05 12:08:04;;;;;;;3.92;2.30;;;;;;;26.95;23.07;100749.31;5112825;28;20033;-43
2022/10/05 12:10:39;;;;;;;3.65;1.85;;;;;;;27.83;22.08;100743.63;5112981;28;20035;-43
2022/10/05 12:13:20;;;;;;;1.90;1.50;;;;;;;28.28;21.21;100738.59;5112659;27;20027;-44
2022/10/05 12:15:53;;;;;;;1.80;1.48;;;;;;;28.74;20.91;100743.31;5112638;28;20138;-44
2022/10/05 12:18:44;;;;;;;1.90;1.60;;;;;;;29.27;20.06;100733.84;5112663;28;20482;-47
2022/10/05 12:21:15;;;;;;;;;;;;;;;28.88;19.76;100734.31;5113103;28;20066;-45
2022/10/05 12:24:14;;;;;;;2.67;1.90;;;;;;;28.96;20.12;100730.88;5112708;28;19912;-44
2022/10/05 12:26:51;;;;;;;2.05;1.60;;;;;;;28.91;20.74;100728.25;5112698;28;20023;-46
2022/10/05 12:29:32;;;;;;;3.35;1.50;;;;;;;28.95;20.30;100726.50;5112647;28;20476;-42
2022/10/05 12:32:03;;;;;;;2.67;1.85;;;;;;;29.01;19.71;100714.34;5112384;28;20108;-42
2022/10/05 12:34:47;;;;;;;1.88;1.70;;;;;;;28.66;20.59;100720.19;5112435;28;20497;-47
2022/10/05 12:37:39;;;;;;;3.88;1.50;;;;;;;28.45;20.70;100708.75;5112147;28;20027;-42